createdAt,value
2023-02-22T12:09:12.665Z,950.43
2023-02-22T12:10:14.137Z,950.13
2023-02-22T12:11:12.286Z,949.82
2023-02-22T12:12:12.044Z,949.75
2023-02-22T12:13:12.098Z,949.47
2023-02-22T12:14:12.022Z,949.28
2023-02-22T12:15:12.148Z,949.14
2023-02-22T12:16:12.531Z,949.20
2023-02-22T12:17:12.119Z,948.87
2023-02-22T12:18:12.088Z,948.98
2023-02-22T12:19:12.100Z,949.45
2023-02-22T12:20:12.108Z,949.26
2023-02-22T12:21:12.578Z,949.40
2023-02-22T12:22:12.069Z,949.79
2023-02-22T12:23:12.260Z,949.56
2023-02-22T12:24:12.073Z,949.34
2023-02-22T12:25:12.167Z,949.30
2023-02-22T12:26:12.249Z,948.54
2023-02-22T12:27:12.090Z,948.04
2023-02-22T12:28:23.681Z,948.05
2023-02-22T12:29:12.229Z,947.92
2023-02-22T12:30:12.406Z,948.19
2023-02-22T12:31:12.887Z,947.78
2023-02-22T12:32:12.417Z,947.50
2023-02-22T12:33:12.572Z,947.51
2023-02-22T12:34:15.396Z,947.50
2023-02-22T12:35:12.221Z,947.63
2023-02-22T12:36:12.634Z,947.13
2023-02-22T12:37:12.269Z,947.11
2023-02-22T12:38:12.273Z,947.48
2023-02-22T12:39:12.234Z,947.66
2023-02-22T12:40:12.264Z,947.74
2023-02-22T12:41:12.250Z,948.40
2023-02-22T12:42:14.568Z,948.44
2023-02-22T12:43:12.264Z,948.47
2023-02-22T12:44:12.390Z,948.47
2023-02-22T12:45:12.205Z,948.70
2023-02-22T12:46:12.263Z,948.82
2023-02-22T12:47:12.429Z,949.17
2023-02-22T12:48:12.276Z,949.02
2023-02-22T12:49:12.331Z,949.26
2023-02-22T12:50:14.913Z,949.62
2023-02-22T12:51:16.289Z,949.91
2023-02-22T12:52:21.353Z,950.66
2023-02-22T12:53:12.366Z,950.40
2023-02-22T12:54:13.296Z,950.63
2023-02-22T12:55:12.473Z,950.83
2023-02-22T12:56:12.583Z,950.87
2023-02-22T12:57:12.581Z,950.99
2023-02-22T12:58:13.926Z,951.10
2023-02-22T12:59:12.489Z,951.08
2023-02-22T13:00:12.427Z,951.15
2023-02-22T13:01:12.937Z,950.92
2023-02-22T13:02:12.919Z,951.05
2023-02-22T13:03:12.758Z,950.84
2023-02-22T13:04:20.452Z,950.43
2023-02-22T13:05:13.111Z,950.25
2023-02-22T13:06:12.449Z,950.27
2023-02-22T13:07:13.017Z,950.04
2023-02-22T13:08:15.267Z,949.94
2023-02-22T13:09:12.684Z,949.85
2023-02-22T13:10:12.518Z,949.64
2023-02-22T13:11:13.347Z,949.94
2023-02-22T13:12:13.038Z,949.82
2023-02-22T13:13:12.630Z,950.07
2023-02-22T13:14:12.504Z,950.16
2023-02-22T13:15:12.488Z,950.26
2023-02-22T13:16:12.469Z,950.37
2023-02-22T13:17:13.089Z,950.55
2023-02-22T13:18:12.462Z,950.73
2023-02-22T13:19:13.742Z,950.89
2023-02-22T13:20:12.598Z,950.93
2023-02-22T13:21:12.527Z,951.27
2023-02-22T13:22:13.284Z,951.39
2023-02-22T13:23:12.757Z,951.47
2023-02-22T13:24:13.326Z,951.54
2023-02-22T13:25:12.473Z,952.04
2023-02-22T13:26:12.896Z,952.01
2023-02-22T13:27:18.791Z,951.98
2023-02-22T13:28:12.807Z,951.71
2023-02-22T13:29:14.621Z,951.94
2023-02-22T13:30:12.785Z,951.98
2023-02-22T13:31:13.192Z,952.07
2023-02-22T13:32:13.643Z,952.04
2023-02-22T13:33:12.563Z,952.17
2023-02-22T13:34:12.547Z,952.12
2023-02-22T13:35:12.706Z,952.14
2023-02-22T13:36:12.948Z,952.14
2023-02-22T13:37:12.648Z,952.30
2023-02-22T13:38:12.781Z,952.42
2023-02-22T13:39:15.006Z,952.14
2023-02-22T13:40:16.903Z,952.17
2023-02-22T13:41:12.917Z,952.28
2023-02-22T13:42:12.768Z,952.32
2023-02-22T13:43:12.789Z,951.99
2023-02-22T13:44:15.338Z,952.12
2023-02-22T13:45:16.022Z,952.49
2023-02-22T13:46:12.831Z,952.37
2023-02-22T13:47:13.390Z,953.02
2023-02-22T13:48:12.902Z,952.31
2023-02-22T13:49:12.893Z,952.23
2023-02-22T13:50:13.248Z,952.16
2023-02-22T13:51:12.644Z,952.35
2023-02-22T13:52:13.950Z,952.20
2023-02-22T13:53:15.926Z,952.08
2023-02-22T13:54:12.703Z,951.92
2023-02-22T13:55:12.756Z,952.28
2023-02-22T13:56:12.944Z,952.28
2023-02-22T13:57:15.358Z,952.27
2023-02-22T13:58:12.933Z,952.16
2023-02-22T13:59:12.700Z,952.13
2023-02-22T14:00:12.800Z,952.30
2023-02-22T14:01:12.583Z,952.15
2023-02-22T14:02:12.645Z,952.21
2023-02-22T14:03:12.699Z,952.10
2023-02-22T14:04:12.680Z,952.23
2023-02-22T14:05:12.683Z,952.44
2023-02-22T14:06:12.681Z,952.26
2023-02-22T14:07:12.723Z,952.22
2023-02-22T14:08:12.724Z,952.16
2023-02-22T14:09:12.695Z,952.61
2023-02-22T14:10:12.656Z,952.43
2023-02-22T14:11:12.652Z,952.59
2023-02-22T14:12:12.679Z,952.32
2023-02-22T14:13:12.670Z,952.12
2023-02-22T14:14:12.696Z,952.04
2023-02-22T14:15:28.819Z,952.13
2023-02-22T14:16:12.652Z,952.10
2023-02-22T14:17:12.647Z,952.10
2023-02-22T14:18:13.059Z,952.23
2023-02-22T14:19:12.796Z,952.37
2023-02-22T14:20:13.010Z,952.20
2023-02-22T14:21:13.010Z,952.31
2023-02-22T14:22:12.910Z,952.57
2023-02-22T14:23:12.772Z,952.30
2023-02-22T14:24:13.014Z,952.30
2023-02-22T14:25:20.397Z,952.29
2023-02-22T14:26:13.711Z,952.34
2023-02-22T14:27:15.774Z,952.23
2023-02-22T14:28:13.078Z,952.41
2023-02-22T14:29:13.001Z,952.53
2023-02-22T14:30:12.953Z,952.27
2023-02-22T14:31:25.763Z,952.36
2023-02-22T14:32:13.893Z,952.58
2023-02-22T14:33:12.970Z,952.67
2023-02-22T14:34:13.551Z,952.63
2023-02-22T14:35:25.636Z,952.50
2023-02-22T14:36:13.053Z,952.41
2023-02-22T14:37:13.787Z,952.60
2023-02-22T14:38:13.094Z,952.24
2023-02-22T14:39:15.005Z,952.09
2023-02-22T14:40:13.286Z,952.28
2023-02-22T14:41:13.368Z,952.17
2023-02-22T14:42:13.389Z,952.26
2023-02-22T14:43:12.831Z,952.32
2023-02-22T14:44:13.187Z,952.21
2023-02-22T14:45:13.155Z,952.19
2023-02-22T14:46:13.929Z,952.10
2023-02-22T14:47:12.947Z,952.12
2023-02-22T14:48:14.949Z,951.98
2023-02-22T14:49:13.049Z,952.42
2023-02-22T14:50:13.585Z,952.33
2023-02-22T14:51:21.508Z,952.20
2023-02-22T14:52:13.628Z,952.30
2023-02-22T14:53:13.762Z,952.50
2023-02-22T14:54:13.210Z,952.31
2023-02-22T14:55:13.336Z,952.17
2023-02-22T14:56:13.189Z,952.19
2023-02-22T14:57:15.500Z,952.20
2023-02-22T14:58:13.241Z,952.09
2023-02-22T14:59:13.315Z,951.90
2023-02-22T15:00:14.371Z,951.86
2023-02-22T15:01:14.040Z,951.81
2023-02-22T15:02:13.585Z,951.89
2023-02-22T15:03:18.232Z,952.11
2023-02-22T15:04:14.298Z,952.35
2023-02-22T15:05:13.343Z,952.26
2023-02-22T15:06:17.560Z,952.07
2023-02-22T15:07:15.260Z,952.36
2023-02-22T15:08:16.411Z,952.05
